Wednesday, October 17, 2018, 11:16 AM CDT
Back to Local

KGYY, Gary Regional

Location: Gary, IN, United States Lat: 41.617
Local Time: 11:16 AM CDT (16:16 GMT) Lon: -87.417
Time Zone: US/Central Elev: 590 ft

Show me the last for .
Show Decoded

2018-10-17 10:45 METAR KGYY 171545Z 29010G17KT 10SM BKN040 09/M02 A3031 =
2018-10-17 09:45 METAR KGYY 171445Z 29012G24KT 10SM BKN036 07/M02 A3027 =
2018-10-17 08:45 METAR KGYY 171345Z 30012KT 10SM BKN034 08/00 A3024 =
2018-10-17 07:45 METAR KGYY 171245Z 28010KT 10SM FEW030 07/00 A3020 =
2018-10-17 06:45 METAR KGYY 171145Z 27012KT 10SM SKC 07/01 A3017 =
2018-10-17 05:45 METAR KGYY 171045Z 25012KT 10SM SKC 08/01 A3012 =
2018-10-17 04:45 METAR KGYY 170945Z 26012KT 10SM SKC 08/01 A3011 =
2018-10-17 04:15 METAR KGYY 170915Z AUTO 26008KT 10SM CLR 08/01 A3011 RMK AO2 T00810013 =
2018-10-17 03:55 METAR KGYY 170855Z AUTO 25007KT 10SM CLR 08/02 A3011 RMK AO2 T00800017 =
2018-10-17 03:35 METAR KGYY 170835Z AUTO 25006KT 10SM CLR 08/02 A3011 RMK AO2 T00820017 =
2018-10-17 03:15 METAR KGYY 170815Z AUTO 25006KT 10SM CLR 08/02 A3010 RMK AO2 T00840019 =
2018-10-17 02:55 METAR KGYY 170755Z AUTO 25006KT 10SM CLR 08/02 A3010 RMK AO2 T00820021 =
2018-10-17 02:35 METAR KGYY 170735Z AUTO 25006KT 10SM CLR 09/02 A3010 RMK AO2 T00860022 =
2018-10-17 02:15 METAR KGYY 170715Z AUTO 25005KT 10SM CLR 09/02 A3009 RMK AO2 T00870021 =
2018-10-17 01:55 METAR KGYY 170655Z AUTO 26007KT 10SM CLR 09/02 A3009 RMK AO2 T00900020 =
2018-10-17 01:35 METAR KGYY 170635Z AUTO 26007KT 10SM CLR 10/02 A3008 RMK AO2 T00960019 =
2018-10-17 01:15 METAR KGYY 170615Z AUTO 25006KT 10SM CLR 09/02 A3008 RMK AO2 T00940020 =
2018-10-17 00:55 METAR KGYY 170555Z AUTO 24005KT 10SM CLR 10/02 A3008 RMK AO2 T00960021 10118
                 20095 401500006 =
2018-10-17 00:35 METAR KGYY 170535Z AUTO 24006KT 10SM CLR 10/02 A3009 RMK AO2 T00950021 =
2018-10-17 00:15 METAR KGYY 170515Z AUTO 24005KT 10SM CLR 10/02 A3008 RMK AO2 T00960018 =
2018-10-16 23:55 METAR KGYY 170455Z AUTO 24006KT 10SM CLR 10/02 A3008 RMK AO2 T01000015 =
2018-10-16 22:55 METAR KGYY 170355Z AUTO 24008G14KT 10SM CLR 11/01 A3008 RMK AO2 T01080008 =
2018-10-16 22:35 METAR KGYY 170335Z AUTO 23005KT 10SM CLR 11/01 A3008 RMK AO2 T01050008 =
2018-10-16 22:15 METAR KGYY 170315Z AUTO 22006KT 10SM CLR 10/01 A3008 RMK AO2 T01030008 =
2018-10-16 21:45 METAR KGYY 170245Z 22010KT 10SM SCT250 11/01 A3007 =
2018-10-16 20:45 METAR KGYY 170145Z 24007KT 10SM FEW250 11/00 A3007 =
2018-10-16 19:45 METAR KGYY 170045Z 24010KT 10SM SKC 11/00 A3006 =
2018-10-16 18:45 METAR KGYY 162345Z 23009KT 10SM FEW150 12/M01 A3004 =
2018-10-16 17:45 METAR KGYY 162245Z 23011G24KT 20SM SKC 14/M02 A3003 =
2018-10-16 16:45 METAR KGYY 162145Z 23017KT 20SM SKC 15/M04 A3003 =
2018-10-16 15:45 METAR KGYY 162045Z 23014G27KT 10SM SKC 15/M04 A3003 =
2018-10-16 14:45 METAR KGYY 161945Z 22015G22KT 10SM FEW080 14/M04 A3006 =
2018-10-16 13:45 METAR KGYY 161845Z 23018KT 10SM FEW080 13/M04 A3009 =
2018-10-16 12:45 METAR KGYY 161745Z 21016KT 10SM FEW060 12/M03 A3012 =
2018-10-16 11:45 METAR KGYY 161645Z 22021KT 10SM SKC 11/M02 A3016 =

Support USWX by starting your Amazon purchase here.